createdAt,value
2019-02-06T00:01:10.261Z,162.27
2019-02-06T00:03:38.488Z,150.67
2019-02-06T00:06:07.134Z,162.80
2019-02-06T00:08:35.329Z,155.20
2019-02-06T00:11:03.535Z,145.67
2019-02-06T00:13:32.079Z,159.03
2019-02-06T00:16:00.295Z,149.37
2019-02-06T00:18:28.471Z,144.43
2019-02-06T00:20:56.729Z,159.03
2019-02-06T00:23:24.921Z,146.67
2019-02-06T00:25:53.140Z,154.40
2019-02-06T00:28:21.329Z,160.50
2019-02-06T00:30:49.892Z,147.77
2019-02-06T00:33:18.089Z,136.23
2019-02-06T00:35:46.277Z,134.80
2019-02-06T00:38:14.461Z,159.20
2019-02-06T00:40:42.646Z,155.53
2019-02-06T00:43:10.833Z,176.30
2019-02-06T00:45:39.013Z,156.10
2019-02-06T00:48:07.206Z,150.97
2019-02-06T00:50:35.395Z,160.53
2019-02-06T00:53:03.697Z,154.93
2019-02-06T00:55:31.882Z,153.50
2019-02-06T00:58:00.134Z,151.80
2019-02-06T01:00:28.318Z,163.07
2019-02-06T01:02:56.887Z,161.10
2019-02-06T01:05:25.074Z,162.63
2019-02-06T01:07:53.263Z,160.77
2019-02-06T01:10:21.530Z,170.90
2019-02-06T01:12:49.729Z,167.00
2019-02-06T01:15:17.913Z,161.93
2019-02-06T01:17:46.118Z,159.47
2019-02-06T01:20:17.200Z,159.73
2019-02-06T01:22:45.390Z,163.87
2019-02-06T01:25:17.705Z,162.60
2019-02-06T01:27:45.885Z,167.30
2019-02-06T01:30:17.482Z,173.53
2019-02-06T01:32:45.675Z,142.83
2019-02-06T01:35:14.609Z,167.87
2019-02-06T01:37:42.830Z,163.90
2019-02-06T01:40:14.022Z,161.60
2019-02-06T01:42:42.300Z,166.93
2019-02-06T01:45:13.300Z,149.77
2019-02-06T01:47:41.497Z,152.73
2019-02-06T01:50:12.180Z,145.47
2019-02-06T01:52:40.436Z,148.93
2019-02-06T01:55:13.113Z,144.67
2019-02-06T01:57:41.293Z,138.83
2019-02-06T02:00:18.169Z,142.50
2019-02-06T02:02:46.350Z,120.17
2019-02-06T02:05:16.159Z,126.80
2019-02-06T02:07:44.343Z,120.10
2019-02-06T02:10:12.534Z,125.43
2019-02-06T02:12:40.722Z,113.50
2019-02-06T02:15:12.005Z,120.67
2019-02-06T02:17:40.199Z,114.40
2019-02-06T02:20:17.551Z,112.27
2019-02-06T02:22:45.737Z,126.37
2019-02-06T02:25:13.926Z,127.60
2019-02-06T02:27:42.196Z,116.23
2019-02-06T02:30:13.479Z,115.27
2019-02-06T02:32:41.663Z,121.70
2019-02-06T02:35:10.026Z,116.37
2019-02-06T02:37:38.210Z,108.97
2019-02-06T02:40:09.134Z,123.03
2019-02-06T02:42:37.396Z,116.10
2019-02-06T02:45:11.693Z,117.53
2019-02-06T02:47:39.872Z,104.70
2019-02-06T02:50:10.109Z,125.07
2019-02-06T02:52:38.282Z,129.00
2019-02-06T02:55:08.715Z,118.50
2019-02-06T02:57:36.902Z,127.13
2019-02-06T03:00:18.017Z,132.43
2019-02-06T03:03:04.125Z,142.47
2019-02-06T03:05:33.877Z,135.23
2019-02-06T03:08:02.061Z,142.40
2019-02-06T03:10:30.256Z,126.33
2019-02-06T03:12:58.437Z,127.10
2019-02-06T03:15:26.637Z,135.17
2019-02-06T03:17:54.827Z,126.27
2019-02-06T03:20:23.025Z,135.27
2019-02-06T03:22:51.207Z,123.70
2019-02-06T03:25:19.400Z,118.93
2019-02-06T03:27:47.595Z,120.07
2019-02-06T03:30:17.649Z,116.17
2019-02-06T03:32:45.839Z,136.20
2019-02-06T03:35:14.389Z,136.33
2019-02-06T03:37:42.587Z,127.40
2019-02-06T03:40:16.325Z,130.03
2019-02-06T03:42:44.522Z,132.27
2019-02-06T03:45:13.444Z,131.83
2019-02-06T03:47:41.632Z,132.87
2019-02-06T03:50:15.380Z,125.77
2019-02-06T03:52:43.583Z,121.80
2019-02-06T03:55:12.452Z,138.70
2019-02-06T03:57:40.657Z,131.17
2019-02-06T04:00:14.645Z,132.13
2019-02-06T04:02:42.830Z,128.27
2019-02-06T04:05:11.845Z,124.13
2019-02-06T04:07:40.102Z,114.07
2019-02-06T04:10:13.775Z,123.67
2019-02-06T04:12:41.958Z,135.60
2019-02-06T04:15:10.388Z,138.43
2019-02-06T04:17:38.593Z,121.67
2019-02-06T04:20:09.781Z,120.80
2019-02-06T04:22:38.012Z,120.50
2019-02-06T04:25:07.633Z,122.47
2019-02-06T04:27:35.802Z,117.40
2019-02-06T04:30:05.457Z,113.23
2019-02-06T04:32:33.661Z,116.83
2019-02-06T04:35:01.852Z,128.17
2019-02-06T04:37:30.036Z,121.37
2019-02-06T04:39:58.218Z,112.80
2019-02-06T04:42:26.424Z,111.33
2019-02-06T04:44:54.600Z,114.93
2019-02-06T04:47:23.178Z,114.50
2019-02-06T04:49:51.422Z,130.87
2019-02-06T04:52:19.649Z,128.03
2019-02-06T04:54:47.851Z,133.87
2019-02-06T04:57:16.042Z,131.33
2019-02-06T04:59:44.237Z,117.97
2019-02-06T05:02:12.416Z,136.50
2019-02-06T05:04:40.879Z,133.33
2019-02-06T05:07:18.767Z,130.30
2019-02-06T05:09:38.977Z,121.23
2019-02-06T05:12:09.585Z,126.80
2019-02-06T05:14:37.124Z,128.50
2019-02-06T05:17:05.323Z,125.37
2019-02-06T05:19:33.506Z,121.70
2019-02-06T05:22:01.971Z,130.40
2019-02-06T05:24:30.166Z,137.47
2019-02-06T05:26:58.339Z,131.30
2019-02-06T05:29:26.527Z,139.90
2019-02-06T05:31:54.730Z,145.73
2019-02-06T05:34:22.927Z,144.23
2019-02-06T05:36:51.195Z,143.20
2019-02-06T05:39:19.382Z,136.03
2019-02-06T05:41:47.568Z,144.50
2019-02-06T05:44:15.776Z,141.37
2019-02-06T05:46:44.020Z,153.43
2019-02-06T05:49:12.215Z,163.07
2019-02-06T05:51:40.391Z,162.97
2019-02-06T05:54:11.154Z,155.47
2019-02-06T05:56:38.497Z,143.23
2019-02-06T05:59:06.681Z,147.80
2019-02-06T06:01:34.884Z,156.17
2019-02-06T06:04:03.065Z,151.20
2019-02-06T06:06:31.256Z,168.20
2019-02-06T06:08:59.443Z,172.03
2019-02-06T06:11:27.638Z,209.43
2019-02-06T06:13:56.092Z,175.27
2019-02-06T06:16:24.279Z,172.83
2019-02-06T06:18:52.467Z,168.30
2019-02-06T06:21:20.651Z,154.67
2019-02-06T06:23:48.847Z,155.20
2019-02-06T06:26:17.055Z,175.03
2019-02-06T06:28:45.245Z,162.43
2019-02-06T06:31:13.803Z,161.60
2019-02-06T06:33:41.987Z,170.27
2019-02-06T06:36:10.179Z,145.87
2019-02-06T06:38:38.389Z,150.83
2019-02-06T06:41:06.609Z,148.93
2019-02-06T06:43:34.800Z,159.73
2019-02-06T06:46:03.047Z,146.07
2019-02-06T06:48:33.411Z,168.30
2019-02-06T06:51:01.609Z,168.80
2019-02-06T06:53:29.804Z,166.07
2019-02-06T06:55:57.983Z,184.27
2019-02-06T06:58:26.162Z,202.13
2019-02-06T07:00:55.337Z,198.17
2019-02-06T07:03:23.532Z,218.97
2019-02-06T07:05:51.729Z,218.63
2019-02-06T07:08:19.915Z,202.70
2019-02-06T07:10:48.106Z,214.07
2019-02-06T07:13:16.295Z,208.93
2019-02-06T07:15:44.477Z,200.80
2019-02-06T07:18:14.570Z,231.80
2019-02-06T07:20:43.046Z,212.10
2019-02-06T07:23:11.225Z,229.07
2019-02-06T07:25:39.406Z,218.43
2019-02-06T07:28:07.597Z,202.17
2019-02-06T07:30:36.221Z,235.73
2019-02-06T07:33:04.416Z,232.00
2019-02-06T07:35:32.603Z,228.50
2019-02-06T07:38:01.069Z,243.60
2019-02-06T07:40:29.277Z,225.43
2019-02-06T07:42:57.466Z,236.53
2019-02-06T07:45:25.649Z,241.10
2019-02-06T07:47:53.837Z,244.00
2019-02-06T07:50:30.357Z,218.83
2019-02-06T07:52:58.828Z,230.27
2019-02-06T07:55:27.011Z,227.20
2019-02-06T07:57:55.202Z,233.23
2019-02-06T08:00:23.386Z,229.00
2019-02-06T08:02:52.013Z,213.83
2019-02-06T08:05:21.314Z,214.27
2019-02-06T08:07:49.636Z,199.57
2019-02-06T08:10:20.166Z,181.00
2019-02-06T08:12:48.350Z,182.07
2019-02-06T08:15:17.772Z,172.37
2019-02-06T08:17:45.964Z,164.27
2019-02-06T08:20:16.486Z,184.33
2019-02-06T08:22:44.680Z,173.17
2019-02-06T08:25:15.639Z,148.40
2019-02-06T08:27:43.828Z,136.63
2019-02-06T08:30:20.568Z,109.83
2019-02-06T08:32:48.769Z,120.07
2019-02-06T08:35:16.950Z,114.10
2019-02-06T08:37:45.241Z,107.53
2019-02-06T08:40:16.160Z,111.70
2019-02-06T08:42:44.321Z,117.53
2019-02-06T08:45:15.055Z,128.03
2019-02-06T08:47:44.331Z,120.83
2019-02-06T08:50:20.429Z,125.70
2019-02-06T08:52:48.889Z,121.90
2019-02-06T08:55:22.261Z,134.73
2019-02-06T08:57:50.816Z,122.17
2019-02-06T09:00:24.461Z,120.73
2019-02-06T09:02:52.655Z,114.50
2019-02-06T09:05:20.840Z,118.93
2019-02-06T09:07:49.318Z,114.97
2019-02-06T09:10:23.485Z,106.83
2019-02-06T09:12:51.771Z,93.07
2019-02-06T09:15:19.953Z,90.27
2019-02-06T09:17:48.135Z,91.10
2019-02-06T09:20:19.018Z,89.20
2019-02-06T09:22:47.197Z,92.53
2019-02-06T09:25:21.075Z,107.17
2019-02-06T09:27:49.253Z,83.93
2019-02-06T09:30:19.476Z,78.47
2019-02-06T09:32:47.657Z,80.43
2019-02-06T09:35:16.189Z,91.67
2019-02-06T09:37:44.582Z,89.30
2019-02-06T09:40:18.056Z,93.60
2019-02-06T09:42:46.228Z,91.13
2019-02-06T09:45:14.941Z,83.40
2019-02-06T09:47:43.124Z,88.00
2019-02-06T09:50:29.146Z,90.10
2019-02-06T09:52:57.348Z,82.63
2019-02-06T09:55:25.538Z,81.70
2019-02-06T09:57:53.725Z,86.03
2019-02-06T10:00:27.669Z,90.90
2019-02-06T10:02:55.860Z,99.32
2019-02-06T10:05:24.319Z,84.93
2019-02-06T10:07:52.502Z,83.37
2019-02-06T10:10:22.428Z,83.13
2019-02-06T10:12:50.619Z,85.60
2019-02-06T10:15:21.041Z,79.10
2019-02-06T10:17:49.294Z,78.33
2019-02-06T10:20:20.116Z,73.40
2019-02-06T10:22:48.285Z,70.33
2019-02-06T10:25:16.465Z,78.47
2019-02-06T10:27:44.649Z,78.47
2019-02-06T10:30:18.913Z,82.77
2019-02-06T10:32:47.100Z,84.10
2019-02-06T10:35:15.659Z,91.03
2019-02-06T10:37:43.881Z,93.40
2019-02-06T10:40:12.279Z,97.87
2019-02-06T10:42:40.462Z,99.13
2019-02-06T10:45:16.864Z,88.77
2019-02-06T10:47:45.063Z,97.93
2019-02-06T10:50:17.025Z,94.67
2019-02-06T10:52:48.126Z,89.07
2019-02-06T10:55:15.117Z,79.83
2019-02-06T10:57:43.381Z,65.53
2019-02-06T11:00:17.578Z,66.30
2019-02-06T11:02:45.881Z,69.53
2019-02-06T11:05:14.664Z,72.43
2019-02-06T11:07:42.842Z,69.60
2019-02-06T11:10:14.069Z,86.37
2019-02-06T11:12:42.267Z,82.83
2019-02-06T11:15:11.677Z,83.13
2019-02-06T11:17:39.873Z,86.93
2019-02-06T11:20:17.504Z,93.50
2019-02-06T11:22:45.687Z,97.50
2019-02-06T11:25:15.404Z,88.17
2019-02-06T11:27:43.609Z,89.67
2019-02-06T11:30:14.797Z,96.70
2019-02-06T11:32:42.986Z,90.17
2019-02-06T11:35:11.252Z,102.37
2019-02-06T11:37:39.480Z,105.50
2019-02-06T11:40:15.386Z,109.67
2019-02-06T11:42:43.270Z,112.87
2019-02-06T11:45:16.969Z,106.73
2019-02-06T11:47:45.804Z,110.20
2019-02-06T11:50:17.365Z,98.67
2019-02-06T11:52:45.892Z,103.37
2019-02-06T11:55:16.830Z,96.60
2019-02-06T11:57:45.020Z,94.10
2019-02-06T12:00:17.778Z,93.23
2019-02-06T12:02:46.233Z,96.47
2019-02-06T12:05:14.476Z,98.80
2019-02-06T12:07:42.670Z,97.27
2019-02-06T12:10:16.574Z,98.30
2019-02-06T12:12:44.754Z,91.17
2019-02-06T12:15:19.188Z,99.47
2019-02-06T12:17:47.376Z,94.77
2019-02-06T12:20:21.564Z,106.87
2019-02-06T12:22:49.797Z,112.17
2019-02-06T12:25:18.520Z,112.50
2019-02-06T12:27:48.437Z,107.43
2019-02-06T12:30:22.231Z,132.40
2019-02-06T12:32:52.326Z,117.53
2019-02-06T12:35:20.393Z,110.00
2019-02-06T12:37:48.583Z,103.93
2019-02-06T12:40:21.673Z,101.77
2019-02-06T12:42:46.778Z,101.10
2019-02-06T12:45:17.325Z,95.77
2019-02-06T12:47:45.507Z,99.97
2019-02-06T12:50:23.279Z,102.80
2019-02-06T12:52:51.471Z,102.47
2019-02-06T12:55:22.571Z,98.53
2019-02-06T12:57:50.746Z,97.17
2019-02-06T13:00:24.561Z,93.00
2019-02-06T13:02:56.349Z,98.50
2019-02-06T13:05:22.975Z,91.77
2019-02-06T13:07:51.162Z,98.87
2019-02-06T13:10:33.234Z,96.33
2019-02-06T13:12:53.568Z,89.97
2019-02-06T13:15:21.761Z,88.43
2019-02-06T13:17:50.362Z,90.87
2019-02-06T13:20:21.288Z,90.87
2019-02-06T13:22:49.426Z,88.20
2019-02-06T13:25:17.612Z,86.70
2019-02-06T13:27:45.795Z,81.57
2019-02-06T13:30:17.238Z,70.87
2019-02-06T13:32:45.809Z,68.03
2019-02-06T13:35:18.036Z,69.80
2019-02-06T13:37:46.226Z,67.73
2019-02-06T13:40:17.511Z,74.67
2019-02-06T13:42:45.693Z,70.83
2019-02-06T13:45:16.975Z,77.77
2019-02-06T13:47:45.532Z,70.97
2019-02-06T13:50:22.095Z,79.27
2019-02-06T13:52:45.781Z,72.87
2019-02-06T13:55:14.802Z,79.00
2019-02-06T13:57:42.984Z,79.50
2019-02-06T14:00:22.522Z,84.67
2019-02-06T14:02:50.898Z,73.83
2019-02-06T14:05:24.387Z,72.27
2019-02-06T14:07:53.711Z,77.40
2019-02-06T14:10:24.199Z,73.17
2019-02-06T14:12:52.470Z,77.40
2019-02-06T14:15:23.430Z,81.03
2019-02-06T14:17:51.813Z,79.83
2019-02-06T14:20:22.216Z,71.83
2019-02-06T14:22:56.655Z,75.37
2019-02-06T14:25:33.784Z,69.30
2019-02-06T14:28:24.979Z,71.87
2019-02-06T14:31:22.042Z,69.27
2019-02-06T14:33:56.182Z,72.77
2019-02-06T14:36:56.310Z,70.40
2019-02-06T14:39:45.046Z,82.83
2019-02-06T14:42:34.185Z,79.90
2019-02-06T14:45:20.595Z,69.20
2019-02-06T14:47:57.630Z,81.60
2019-02-06T14:50:43.989Z,74.10
2019-02-06T14:53:21.143Z,73.93
2019-02-06T14:56:15.439Z,74.10
2019-02-06T14:58:52.671Z,78.07
2019-02-06T15:01:32.621Z,72.63
2019-02-06T15:04:15.803Z,78.97
2019-02-06T15:06:49.291Z,68.23
2019-02-06T15:09:32.056Z,76.80
2019-02-06T15:12:09.313Z,69.87
2019-02-06T15:14:56.042Z,64.07
2019-02-06T15:17:39.337Z,64.97
2019-02-06T15:20:19.412Z,67.43
2019-02-06T15:23:08.149Z,91.37
2019-02-06T15:25:57.677Z,66.17
2019-02-06T15:28:43.920Z,76.80
2019-02-06T15:31:30.395Z,91.90
2019-02-06T15:34:07.444Z,63.67
2019-02-06T15:36:50.663Z,62.57
2019-02-06T15:39:24.933Z,65.93
2019-02-06T15:41:56.419Z,69.33
2019-02-06T15:44:40.020Z,68.00
2019-02-06T15:47:14.124Z,67.90
2019-02-06T15:49:46.741Z,68.13
2019-02-06T15:52:24.117Z,75.23
2019-02-06T15:55:12.118Z,80.73
2019-02-06T15:57:46.249Z,73.03
2019-02-06T16:00:26.677Z,65.57
2019-02-06T16:03:00.690Z,65.77
2019-02-06T16:05:36.449Z,62.83
2019-02-06T16:08:13.708Z,72.90
2019-02-06T16:11:04.369Z,66.27
2019-02-06T16:13:38.772Z,62.67
2019-02-06T16:16:26.825Z,57.57
2019-02-06T16:19:13.131Z,69.13
2019-02-06T16:21:53.039Z,67.53
2019-02-06T16:24:32.736Z,65.77
2019-02-06T16:27:24.777Z,75.10
2019-02-06T16:30:14.262Z,78.23
2019-02-06T16:32:51.289Z,78.13
2019-02-06T16:35:22.816Z,80.27
2019-02-06T16:38:18.345Z,71.43
2019-02-06T16:40:52.326Z,73.87
2019-02-06T16:43:27.090Z,75.40
2019-02-06T16:46:19.891Z,71.13
2019-02-06T16:48:56.888Z,77.13
2019-02-06T16:51:37.000Z,81.10
2019-02-06T16:54:36.964Z,80.27
2019-02-06T16:57:14.103Z,84.73
2019-02-06T17:00:03.801Z,88.83
2019-02-06T17:02:56.604Z,87.57
2019-02-06T17:05:46.035Z,89.40
2019-02-06T17:08:23.240Z,80.90
2019-02-06T17:11:06.156Z,79.10
2019-02-06T17:13:40.489Z,79.80
2019-02-06T17:16:14.933Z,82.00
2019-02-06T17:18:52.152Z,91.97
2019-02-06T17:21:29.003Z,80.30
2019-02-06T17:24:12.598Z,93.67
2019-02-06T17:26:49.799Z,73.63
2019-02-06T17:29:36.317Z,80.23
2019-02-06T17:32:10.168Z,87.93
2019-02-06T17:34:47.381Z,93.27
2019-02-06T17:37:33.790Z,143.30
2019-02-06T17:40:32.141Z,91.67
2019-02-06T17:43:30.695Z,91.97
2019-02-06T17:46:21.366Z,93.67
2019-02-06T17:49:10.537Z,85.00
2019-02-06T17:51:41.973Z,94.63
2019-02-06T17:54:19.304Z,88.60
2019-02-06T17:56:47.526Z,107.70
2019-02-06T17:59:15.716Z,92.47
2019-02-06T18:01:43.903Z,124.53
2019-02-06T18:04:12.113Z,165.53
2019-02-06T18:06:41.269Z,90.23
2019-02-06T18:09:11.198Z,126.97
2019-02-06T18:11:39.383Z,137.67
2019-02-06T18:14:07.583Z,134.67
2019-02-06T18:16:35.761Z,99.83
2019-02-06T18:19:04.044Z,96.93
2019-02-06T18:21:32.226Z,80.93
2019-02-06T18:24:00.419Z,87.73
2019-02-06T18:26:29.156Z,109.87
2019-02-06T18:28:57.345Z,98.37
2019-02-06T18:31:25.525Z,113.30
2019-02-06T18:33:53.712Z,104.37
2019-02-06T18:36:21.902Z,117.23
2019-02-06T18:38:52.051Z,76.50
2019-02-06T18:41:20.242Z,120.53
2019-02-06T18:43:48.438Z,103.50
2019-02-06T18:46:16.906Z,105.43
2019-02-06T18:48:45.098Z,106.73
2019-02-06T18:51:15.265Z,148.10
2019-02-06T18:53:43.448Z,108.83
2019-02-06T18:56:14.715Z,130.87
2019-02-06T18:58:43.901Z,133.57
2019-02-06T19:01:12.097Z,113.83
2019-02-06T19:03:42.742Z,94.93
2019-02-06T19:06:11.390Z,105.87
2019-02-06T19:08:40.090Z,82.70
2019-02-06T19:11:08.468Z,71.67
2019-02-06T19:13:36.639Z,71.27
2019-02-06T19:16:04.837Z,73.87
2019-02-06T19:18:33.014Z,68.93
2019-02-06T19:21:01.201Z,67.27
2019-02-06T19:23:29.388Z,72.77
2019-02-06T19:25:57.853Z,75.67
2019-02-06T19:28:26.067Z,75.70
2019-02-06T19:30:55.595Z,70.43
2019-02-06T19:33:23.892Z,73.73
2019-02-06T19:35:52.078Z,78.77
2019-02-06T19:38:20.257Z,70.83
2019-02-06T19:40:48.440Z,70.00
2019-02-06T19:43:16.820Z,66.10
2019-02-06T19:45:44.996Z,65.33
2019-02-06T19:48:16.326Z,71.50
2019-02-06T19:50:44.627Z,70.70
2019-02-06T19:53:12.806Z,60.93
2019-02-06T19:55:40.990Z,69.43
2019-02-06T19:58:10.208Z,72.90
2019-02-06T20:00:38.403Z,71.90
2019-02-06T20:03:08.181Z,81.30
2019-02-06T20:05:36.553Z,72.77
2019-02-06T20:08:05.475Z,69.80
2019-02-06T20:10:45.725Z,78.57
2019-02-06T20:13:14.720Z,77.27
2019-02-06T20:15:42.985Z,71.77
2019-02-06T20:18:14.403Z,74.03
2019-02-06T20:20:42.677Z,64.97
2019-02-06T20:23:10.864Z,78.73
2019-02-06T20:25:39.041Z,71.80
2019-02-06T20:28:07.292Z,69.50
2019-02-06T20:30:35.734Z,68.43
2019-02-06T20:33:03.924Z,65.00
2019-02-06T20:35:32.183Z,69.43
2019-02-06T20:38:00.367Z,71.17
2019-02-06T20:40:33.718Z,83.77
2019-02-06T20:43:01.903Z,72.87
2019-02-06T20:45:30.083Z,89.83
2019-02-06T20:47:59.191Z,64.60
2019-02-06T20:50:30.763Z,73.90
2019-02-06T20:52:59.322Z,79.03
2019-02-06T20:55:27.501Z,74.73
2019-02-06T20:57:55.693Z,106.00
2019-02-06T21:00:33.130Z,79.17
2019-02-06T21:03:01.384Z,94.40
2019-02-06T21:05:29.565Z,86.40
2019-02-06T21:07:58.133Z,92.63
2019-02-06T21:10:31.583Z,94.27
2019-02-06T21:12:59.938Z,89.63
2019-02-06T21:15:28.160Z,93.57
2019-02-06T21:17:56.360Z,98.87
2019-02-06T21:20:25.075Z,84.70
2019-02-06T21:22:53.263Z,99.17
2019-02-06T21:25:23.065Z,104.30
2019-02-06T21:27:51.534Z,98.50
2019-02-06T21:30:28.646Z,99.17
2019-02-06T21:32:56.831Z,95.70
2019-02-06T21:35:25.023Z,115.73
2019-02-06T21:37:53.231Z,156.17
2019-02-06T21:40:32.803Z,156.37
2019-02-06T21:43:01.077Z,105.03
2019-02-06T21:45:29.343Z,117.27
2019-02-06T21:47:57.532Z,119.33
2019-02-06T21:50:25.786Z,107.13
2019-02-06T21:52:55.444Z,116.50
2019-02-06T21:55:25.042Z,109.83
2019-02-06T21:57:53.229Z,110.83
2019-02-06T22:00:26.849Z,188.97
2019-02-06T22:02:55.031Z,123.87
2019-02-06T22:05:29.306Z,120.50
2019-02-06T22:08:06.418Z,143.03
2019-02-06T22:10:34.610Z,110.17
2019-02-06T22:13:02.809Z,132.13
2019-02-06T22:15:31.925Z,131.03
2019-02-06T22:18:00.170Z,121.73
2019-02-06T22:20:28.629Z,119.83
2019-02-06T22:22:57.734Z,127.90
2019-02-06T22:25:25.947Z,99.87
2019-02-06T22:27:54.143Z,131.93
2019-02-06T22:30:29.600Z,123.77
2019-02-06T22:32:57.797Z,157.13
2019-02-06T22:35:26.174Z,153.93
2019-02-06T22:37:54.363Z,111.77
2019-02-06T22:40:27.069Z,118.03
2019-02-06T22:42:55.260Z,155.00
2019-02-06T22:45:29.494Z,126.13
2019-02-06T22:47:57.677Z,168.27
2019-02-06T22:50:27.759Z,190.10
2019-02-06T22:52:55.897Z,150.73
2019-02-06T22:55:24.087Z,142.63
2019-02-06T22:57:52.274Z,134.17
2019-02-06T23:00:47.952Z,119.70
2019-02-06T23:03:19.563Z,141.70
2019-02-06T23:05:47.854Z,144.50
2019-02-06T23:08:16.019Z,187.30
2019-02-06T23:10:44.213Z,150.80
2019-02-06T23:13:12.394Z,86.03
2019-02-06T23:15:40.586Z,114.43
2019-02-06T23:18:08.766Z,85.27
2019-02-06T23:20:37.056Z,97.17
2019-02-06T23:23:05.254Z,132.63
2019-02-06T23:25:33.441Z,115.00
2019-02-06T23:28:01.627Z,116.33
2019-02-06T23:30:30.117Z,96.13
2019-02-06T23:32:58.299Z,90.93
2019-02-06T23:35:26.478Z,96.87
2019-02-06T23:37:54.681Z,106.47
2019-02-06T23:40:22.872Z,119.37
2019-02-06T23:42:51.052Z,71.80
2019-02-06T23:45:19.257Z,79.37
2019-02-06T23:47:47.438Z,66.87
2019-02-06T23:50:17.255Z,72.17
2019-02-06T23:52:45.443Z,67.70
2019-02-06T23:55:13.624Z,76.20
2019-02-06T23:57:41.804Z,84.73
